createdAt,value
2022-09-12T02:45:21.140Z,97.82
2022-09-12T02:46:21.159Z,97.41
2022-09-12T02:47:21.111Z,97.92
2022-09-12T02:48:22.377Z,97.92
2022-09-12T02:49:22.353Z,98.13
2022-09-12T02:50:22.181Z,98.08
2022-09-12T02:51:23.791Z,98.60
2022-09-12T02:52:23.169Z,98.29
2022-09-12T02:53:22.183Z,97.94
2022-09-12T02:54:22.215Z,98.14
2022-09-12T02:55:22.109Z,98.04
2022-09-12T02:56:22.105Z,98.04
2022-09-12T02:57:23.253Z,98.04
2022-09-12T02:58:23.087Z,97.83
2022-09-12T02:59:22.064Z,97.83
2022-09-12T03:00:22.063Z,97.99
2022-09-12T03:01:22.164Z,97.83
2022-09-12T03:02:22.084Z,97.74
2022-09-12T03:03:22.092Z,97.53
2022-09-12T03:04:22.063Z,97.74
2022-09-12T03:05:22.039Z,97.22
2022-09-12T03:06:22.041Z,97.33
2022-09-12T03:07:22.008Z,97.22
2022-09-12T03:08:22.069Z,97.33
2022-09-12T03:09:22.010Z,97.42
2022-09-12T03:10:21.976Z,97.33
2022-09-12T03:11:21.937Z,97.22
2022-09-12T03:12:21.981Z,97.38
2022-09-12T03:13:21.953Z,97.12
2022-09-12T03:14:21.953Z,97.02
2022-09-12T03:15:21.918Z,96.81
2022-09-12T03:16:21.986Z,96.92
2022-09-12T03:17:21.937Z,96.87
2022-09-12T03:18:21.889Z,96.81
2022-09-12T03:19:21.893Z,97.02
2022-09-12T03:20:21.906Z,96.81
2022-09-12T03:21:21.863Z,96.87
2022-09-12T03:22:21.828Z,97.63
2022-09-12T03:23:22.067Z,97.12
2022-09-12T03:24:21.813Z,96.81
2022-09-12T03:25:21.780Z,96.97
2022-09-12T03:26:21.869Z,96.97
2022-09-12T03:27:22.632Z,97.02
2022-09-12T03:28:21.825Z,96.87
2022-09-12T03:29:21.845Z,96.97
2022-09-12T03:30:21.835Z,96.77
2022-09-12T03:31:21.787Z,96.61
2022-09-12T03:32:21.754Z,96.56
2022-09-12T03:33:21.775Z,96.81
2022-09-12T03:34:21.772Z,96.87
2022-09-12T03:35:23.163Z,96.26
2022-09-12T03:36:22.737Z,96.30
2022-09-12T03:37:21.732Z,96.41
2022-09-12T03:38:21.752Z,96.97
2022-09-12T03:39:21.708Z,96.56
2022-09-12T03:40:21.694Z,96.51
2022-09-12T03:41:21.660Z,96.41
2022-09-12T03:42:22.542Z,96.71
2022-09-12T03:43:21.680Z,96.97
2022-09-12T03:44:21.648Z,96.81
2022-09-12T03:45:21.654Z,96.92
2022-09-12T03:46:22.132Z,96.92
2022-09-12T03:47:21.639Z,97.12
2022-09-12T03:48:21.617Z,96.81
2022-09-12T03:49:21.606Z,96.87
2022-09-12T03:50:21.569Z,97.12
2022-09-12T03:51:21.590Z,97.12
2022-09-12T03:52:21.548Z,97.28
2022-09-12T03:53:21.599Z,97.33
2022-09-12T03:54:21.514Z,97.33
2022-09-12T03:55:21.530Z,97.53
2022-09-12T03:56:21.509Z,97.38
2022-09-12T03:57:21.536Z,97.28
2022-09-12T03:58:21.559Z,97.33
2022-09-12T03:59:21.483Z,97.42
2022-09-12T04:00:21.495Z,97.33
2022-09-12T04:01:21.542Z,97.49
2022-09-12T04:02:21.543Z,97.22
2022-09-12T04:03:21.484Z,97.58
2022-09-12T04:04:21.463Z,97.17
2022-09-12T04:05:21.434Z,97.49
2022-09-12T04:06:21.391Z,97.22
2022-09-12T04:07:21.471Z,97.33
2022-09-12T04:08:21.426Z,97.22
2022-09-12T04:09:21.377Z,97.42
2022-09-12T04:10:21.368Z,97.33
2022-09-12T04:11:21.406Z,97.22
2022-09-12T04:12:21.344Z,97.22
2022-09-12T04:13:21.354Z,97.22
2022-09-12T04:14:21.407Z,96.81
2022-09-12T04:15:21.349Z,97.02
2022-09-12T04:16:21.341Z,97.22
2022-09-12T04:17:21.354Z,97.22
2022-09-12T04:18:21.336Z,97.33
2022-09-12T04:19:21.327Z,97.28
2022-09-12T04:20:21.318Z,97.33
2022-09-12T04:21:22.000Z,97.42
2022-09-12T04:22:21.253Z,96.71
2022-09-12T04:23:21.720Z,97.22
2022-09-12T04:24:21.227Z,97.22
2022-09-12T04:25:21.229Z,97.02
2022-09-12T04:26:21.227Z,96.92
2022-09-12T04:27:21.193Z,97.33
2022-09-12T04:28:21.289Z,96.92
2022-09-12T04:29:21.169Z,97.02
2022-09-12T04:30:21.173Z,97.12
2022-09-12T04:31:21.168Z,97.12
2022-09-12T04:32:21.122Z,97.53
2022-09-12T04:33:21.145Z,97.49
2022-09-12T04:34:21.175Z,97.17
2022-09-12T04:35:21.153Z,97.33
2022-09-12T04:36:21.118Z,97.33
2022-09-12T04:37:21.158Z,97.33
2022-09-12T04:38:21.161Z,97.22
2022-09-12T04:39:21.121Z,97.22
2022-09-12T04:40:21.082Z,97.02
2022-09-12T04:41:21.087Z,96.81
2022-09-12T04:42:21.146Z,97.02
2022-09-12T04:43:21.046Z,97.22
2022-09-12T04:44:21.040Z,97.12
2022-09-12T04:45:21.042Z,97.06
2022-09-12T04:46:21.011Z,97.16
2022-09-12T04:47:21.018Z,97.37
2022-09-12T04:48:21.032Z,97.62
2022-09-12T04:49:20.989Z,97.82
2022-09-12T04:50:20.940Z,98.13
2022-09-12T04:51:20.970Z,97.82
2022-09-12T04:52:20.953Z,98.29
2022-09-12T04:53:20.939Z,98.19
2022-09-12T04:54:20.974Z,98.19
2022-09-12T04:55:20.954Z,98.24
2022-09-12T04:56:20.924Z,97.78
2022-09-12T04:57:21.516Z,97.94
2022-09-12T04:58:20.959Z,97.83
2022-09-12T04:59:20.893Z,97.42
2022-09-12T05:00:20.926Z,97.47
2022-09-12T05:01:20.955Z,97.22
2022-09-12T05:02:20.893Z,96.81
2022-09-12T05:03:20.861Z,96.61
2022-09-12T05:04:20.825Z,96.71
2022-09-12T05:05:20.826Z,97.12
2022-09-12T05:06:20.823Z,97.12
2022-09-12T05:07:20.847Z,96.92
2022-09-12T05:08:21.052Z,96.61
2022-09-12T05:09:20.838Z,96.92
2022-09-12T05:10:20.773Z,96.51
2022-09-12T05:11:24.752Z,96.14
2022-09-12T05:12:22.724Z,96.14
2022-09-12T05:13:24.085Z,96.14
2022-09-12T05:14:20.727Z,96.49
2022-09-12T05:15:22.775Z,96.66
2022-09-12T05:16:20.724Z,96.86
2022-09-12T05:17:20.759Z,96.86
2022-09-12T05:18:20.759Z,96.96
2022-09-12T05:19:20.702Z,97.06
2022-09-12T05:20:20.711Z,96.70
2022-09-12T05:21:20.696Z,97.00
2022-09-12T05:22:20.649Z,96.80
2022-09-12T05:23:20.709Z,96.84
2022-09-12T05:24:20.674Z,97.25
2022-09-12T05:25:20.627Z,97.82
2022-09-12T05:26:20.614Z,97.52
2022-09-12T05:27:20.685Z,97.52
2022-09-12T05:28:20.605Z,97.62
2022-09-12T05:29:20.583Z,97.72
2022-09-12T05:30:20.665Z,97.72
2022-09-12T05:31:20.597Z,97.82
2022-09-12T05:32:20.588Z,98.03
2022-09-12T05:33:24.916Z,97.78
2022-09-12T05:34:21.539Z,97.78
2022-09-12T05:35:20.713Z,97.47
2022-09-12T05:36:20.542Z,97.67
2022-09-12T05:37:20.521Z,97.57
2022-09-12T05:38:20.531Z,97.53
2022-09-12T05:39:20.549Z,97.33
2022-09-12T05:40:20.453Z,97.63
2022-09-12T05:41:24.729Z,97.33
2022-09-12T05:42:21.500Z,97.22
2022-09-12T05:43:20.484Z,97.22
2022-09-12T05:44:20.573Z,96.81
2022-09-12T05:45:20.450Z,96.41
2022-09-12T05:46:20.412Z,96.55
2022-09-12T05:47:20.442Z,96.14
2022-09-12T05:48:20.469Z,96.14
2022-09-12T05:49:20.394Z,96.14
2022-09-12T05:50:20.463Z,95.94
2022-09-12T05:51:20.390Z,96.25
2022-09-12T05:52:20.401Z,96.34
2022-09-12T05:53:20.382Z,95.94
2022-09-12T05:54:20.474Z,96.04
2022-09-12T05:55:20.381Z,96.41
2022-09-12T05:56:20.348Z,96.20
2022-09-12T05:57:20.350Z,96.00
2022-09-12T05:58:20.412Z,96.30
2022-09-12T05:59:20.307Z,96.10
2022-09-12T06:00:20.314Z,96.20
2022-09-12T06:01:20.315Z,95.95
2022-09-12T06:02:20.376Z,96.67
2022-09-12T06:03:20.279Z,96.05
2022-09-12T06:04:21.140Z,95.85
2022-09-12T06:05:20.283Z,95.64
2022-09-12T06:06:20.237Z,95.64
2022-09-12T06:07:20.272Z,95.64
2022-09-12T06:08:20.218Z,96.15
2022-09-12T06:09:20.241Z,95.60
2022-09-12T06:10:20.237Z,95.60
2022-09-12T06:11:20.209Z,95.19
2022-09-12T06:12:20.210Z,94.42
2022-09-12T06:13:20.190Z,94.67
2022-09-12T06:14:21.244Z,94.56
2022-09-12T06:15:21.773Z,95.23
2022-09-12T06:16:20.246Z,95.03
2022-09-12T06:17:20.159Z,95.13
2022-09-12T06:18:20.214Z,95.34
2022-09-12T06:19:20.110Z,94.73
2022-09-12T06:20:20.131Z,94.77
2022-09-12T06:21:20.073Z,95.34
2022-09-12T06:22:20.133Z,95.18
2022-09-12T06:23:20.103Z,95.54
2022-09-12T06:24:20.097Z,95.64
2022-09-12T06:25:20.068Z,95.38
2022-09-12T06:26:20.100Z,95.59
2022-09-12T06:27:20.026Z,95.89
2022-09-12T06:28:20.084Z,96.41
2022-09-12T06:29:20.032Z,95.95
2022-09-12T06:30:24.765Z,95.95
2022-09-12T06:31:21.988Z,95.75
2022-09-12T06:32:19.991Z,95.64
2022-09-12T06:33:20.088Z,96.05
2022-09-12T06:34:19.962Z,95.44
2022-09-12T06:35:20.031Z,95.54
2022-09-12T06:36:19.978Z,96.15
2022-09-12T06:37:20.001Z,96.36
2022-09-12T06:38:20.173Z,96.05
2022-09-12T06:39:19.949Z,95.23
2022-09-12T06:40:19.992Z,95.50
2022-09-12T06:41:19.903Z,95.60
2022-09-12T06:42:20.001Z,95.29
2022-09-12T06:43:19.896Z,95.50
2022-09-12T06:44:19.885Z,95.39
2022-09-12T06:45:19.854Z,95.50
2022-09-12T06:46:19.919Z,95.29
2022-09-12T06:47:19.854Z,94.98
2022-09-12T06:48:19.854Z,95.09
2022-09-12T06:49:19.860Z,94.98
2022-09-12T06:50:19.872Z,94.68
2022-09-12T06:51:19.788Z,94.33
2022-09-12T06:52:19.901Z,94.43
2022-09-12T06:53:19.829Z,94.33
2022-09-12T06:54:19.793Z,94.48
2022-09-12T06:55:22.543Z,94.64
2022-09-12T06:56:20.765Z,94.58
2022-09-12T06:57:19.823Z,94.17
2022-09-12T06:58:20.681Z,94.68
2022-09-12T06:59:19.739Z,94.94
2022-09-12T07:00:19.725Z,95.04
2022-09-12T07:01:19.752Z,94.84
2022-09-12T07:02:19.771Z,94.64
2022-09-12T07:03:19.756Z,94.70
2022-09-12T07:04:19.668Z,94.49
2022-09-12T07:05:19.647Z,94.70
2022-09-12T07:06:19.763Z,94.18
2022-09-12T07:07:19.651Z,94.38
2022-09-12T07:08:19.668Z,92.96
2022-09-12T07:09:19.626Z,92.80
2022-09-12T07:10:22.316Z,93.00
2022-09-12T07:11:20.659Z,93.00
2022-09-12T07:12:19.608Z,93.10
2022-09-12T07:13:20.489Z,93.57
2022-09-12T07:14:19.625Z,94.38
2022-09-12T07:15:19.602Z,94.59
2022-09-12T07:16:20.186Z,94.79
2022-09-12T07:17:20.529Z,94.59
2022-09-12T07:18:19.549Z,94.95
2022-09-12T07:19:19.617Z,94.55
2022-09-12T07:20:19.491Z,94.24
2022-09-12T07:21:19.758Z,94.34
2022-09-12T07:22:19.516Z,94.34
2022-09-12T07:23:19.506Z,93.47
2022-09-12T07:24:19.478Z,93.57
2022-09-12T07:25:19.508Z,93.63
2022-09-12T07:26:19.453Z,93.63
2022-09-12T07:27:19.489Z,94.18
2022-09-12T07:28:19.436Z,94.24
2022-09-12T07:29:36.081Z,94.55
2022-09-12T07:30:21.453Z,93.63
2022-09-12T07:31:19.424Z,93.57
2022-09-12T07:32:19.453Z,94.29
2022-09-12T07:33:20.131Z,93.84
2022-09-12T07:34:19.410Z,94.04
2022-09-12T07:35:19.421Z,94.14
2022-09-12T07:36:19.389Z,94.24
2022-09-12T07:37:19.305Z,94.09
2022-09-12T07:38:19.329Z,94.30
2022-09-12T07:39:19.396Z,93.07
2022-09-12T07:40:19.368Z,93.18
2022-09-12T07:41:19.353Z,92.77
2022-09-12T07:42:19.334Z,93.24
2022-09-12T07:43:19.282Z,93.13
2022-09-12T07:44:19.297Z,93.24
2022-09-12T07:45:19.292Z,92.48
2022-09-12T07:46:19.368Z,91.20
2022-09-12T07:47:19.213Z,90.99
2022-09-12T07:48:19.198Z,90.79
2022-09-12T07:49:19.249Z,90.53
2022-09-12T07:50:19.234Z,91.03
2022-09-12T07:51:19.191Z,91.24
2022-09-12T07:52:19.240Z,90.99
2022-09-12T07:53:19.180Z,91.91
2022-09-12T07:54:19.248Z,92.22
2022-09-12T07:55:19.181Z,91.81
2022-09-12T07:56:19.173Z,91.50
2022-09-12T07:57:19.200Z,90.85
2022-09-12T07:58:19.308Z,91.09
2022-09-12T07:59:41.437Z,90.95
2022-09-12T08:00:21.163Z,91.97
2022-09-12T08:01:19.136Z,91.87
2022-09-12T08:02:19.689Z,90.85
2022-09-12T08:03:19.123Z,90.85
2022-09-12T08:04:19.106Z,90.79
2022-09-12T08:05:19.052Z,90.79
2022-09-12T08:06:19.066Z,90.69
2022-09-12T08:07:19.047Z,91.61
2022-09-12T08:08:19.043Z,91.77
2022-09-12T08:09:19.032Z,90.95
2022-09-12T08:10:18.998Z,91.26
2022-09-12T08:11:18.988Z,92.07
2022-09-12T08:12:18.982Z,91.93
2022-09-12T08:13:19.020Z,91.72
2022-09-12T08:14:18.961Z,91.78
2022-09-12T08:15:18.962Z,90.86
2022-09-12T08:16:18.922Z,90.03
2022-09-12T08:17:19.077Z,91.77
2022-09-12T08:18:18.967Z,91.61
2022-09-12T08:19:18.914Z,91.91
2022-09-12T08:20:18.900Z,91.77
2022-09-12T08:21:18.985Z,91.66
2022-09-12T08:22:18.922Z,90.85
2022-09-12T08:23:18.936Z,91.42
2022-09-12T08:24:18.893Z,91.83
2022-09-12T08:25:18.905Z,91.78
2022-09-12T08:26:18.833Z,90.42
2022-09-12T08:27:18.865Z,90.62
2022-09-12T08:28:18.848Z,90.48
2022-09-12T08:29:18.846Z,90.84
2022-09-12T08:30:18.822Z,89.83
2022-09-12T08:31:18.815Z,88.60
2022-09-12T08:32:18.832Z,87.75
2022-09-12T08:33:18.834Z,86.07
2022-09-12T08:34:18.846Z,86.37
2022-09-12T08:35:18.856Z,86.98
2022-09-12T08:36:18.883Z,88.10
2022-09-12T08:37:18.808Z,89.52
2022-09-12T08:38:18.813Z,89.72
2022-09-12T08:39:23.764Z,89.28
2022-09-12T08:40:18.809Z,87.89
2022-09-12T08:41:18.821Z,88.46
2022-09-12T08:42:18.737Z,88.50
2022-09-12T08:43:18.763Z,87.89
2022-09-12T08:44:18.793Z,88.30
2022-09-12T08:45:18.732Z,87.79
2022-09-12T08:46:18.745Z,87.79
2022-09-12T08:47:18.720Z,87.38
2022-09-12T08:48:18.658Z,87.45
2022-09-12T08:49:18.700Z,87.95
2022-09-12T08:50:18.673Z,87.85
2022-09-12T08:51:18.599Z,87.71
2022-09-12T08:52:18.647Z,87.00
2022-09-12T08:53:18.583Z,87.20
2022-09-12T08:54:18.577Z,87.65
2022-09-12T08:55:18.614Z,88.01
2022-09-12T08:56:18.730Z,87.81
2022-09-12T08:57:18.574Z,87.40
2022-09-12T08:58:18.564Z,87.30
2022-09-12T08:59:18.504Z,87.16
2022-09-12T09:00:19.170Z,86.55
2022-09-12T09:01:18.576Z,86.77
2022-09-12T09:02:18.566Z,86.47
2022-09-12T09:03:18.519Z,85.11
2022-09-12T09:04:18.525Z,84.91
2022-09-12T09:05:18.530Z,84.97
2022-09-12T09:06:18.473Z,84.56
2022-09-12T09:07:18.448Z,83.35
2022-09-12T09:08:18.443Z,83.31
2022-09-12T09:09:18.457Z,82.50
2022-09-12T09:10:18.550Z,81.02
2022-09-12T09:11:18.440Z,82.50
2022-09-12T09:12:18.388Z,82.10
2022-09-12T09:13:18.408Z,81.90
2022-09-12T09:14:18.433Z,81.69
2022-09-12T09:15:18.376Z,81.59
2022-09-12T09:16:18.434Z,81.59
2022-09-12T09:17:18.350Z,82.30
2022-09-12T09:18:18.362Z,82.20
2022-09-12T09:19:18.393Z,81.96
2022-09-12T09:20:18.341Z,81.05
2022-09-12T09:21:18.362Z,81.45
2022-09-12T09:22:18.313Z,82.46
2022-09-12T09:23:18.323Z,81.39
2022-09-12T09:24:18.357Z,82.10
2022-09-12T09:25:22.588Z,82.10
2022-09-12T09:26:19.230Z,82.70
2022-09-12T09:27:37.287Z,83.37
2022-09-12T09:28:20.270Z,82.67
2022-09-12T09:29:18.242Z,82.32
2022-09-12T09:30:18.319Z,81.51
2022-09-12T09:31:18.273Z,81.48
2022-09-12T09:32:18.179Z,81.21
2022-09-12T09:33:18.214Z,81.17
2022-09-12T09:34:18.168Z,81.78
2022-09-12T09:35:18.146Z,81.23
2022-09-12T09:36:18.133Z,80.63
2022-09-12T09:37:18.145Z,79.52
2022-09-12T09:38:18.143Z,79.11
2022-09-12T09:39:18.109Z,79.79
2022-09-12T09:40:18.274Z,78.77
2022-09-12T09:41:18.112Z,79.68
2022-09-12T09:42:18.115Z,80.05
2022-09-12T09:43:18.149Z,78.84
2022-09-12T09:44:18.626Z,78.84
2022-09-12T09:45:18.139Z,79.54
2022-09-12T09:46:18.088Z,79.14
2022-09-12T09:47:18.008Z,79.17
2022-09-12T09:48:18.032Z,80.63
2022-09-12T09:49:18.029Z,79.68
2022-09-12T09:50:18.017Z,79.99
2022-09-12T09:51:17.997Z,80.53
2022-09-12T09:52:17.994Z,80.39
2022-09-12T09:53:18.027Z,79.74
2022-09-12T09:54:17.990Z,79.74
2022-09-12T09:55:17.917Z,80.15
2022-09-12T09:56:21.407Z,79.08
2022-09-12T09:57:18.927Z,80.15
2022-09-12T09:58:17.971Z,80.31
2022-09-12T09:59:18.008Z,79.91
2022-09-12T10:00:17.911Z,78.66
2022-09-12T10:01:17.974Z,78.16
2022-09-12T10:02:23.157Z,79.41
2022-09-12T10:03:19.935Z,78.86
2022-09-12T10:04:17.931Z,77.59
2022-09-12T10:05:17.919Z,78.66
2022-09-12T10:06:17.861Z,78.76
2022-09-12T10:07:17.829Z,79.36
2022-09-12T10:08:17.835Z,78.66
2022-09-12T10:09:17.845Z,78.96
2022-09-12T10:10:17.803Z,79.16
2022-09-12T10:11:17.796Z,79.13
2022-09-12T10:12:17.806Z,78.12
2022-09-12T10:13:17.812Z,77.92
2022-09-12T10:14:17.764Z,76.81
2022-09-12T10:15:17.800Z,77.17
2022-09-12T10:16:17.755Z,77.48
2022-09-12T10:17:17.750Z,76.57
2022-09-12T10:18:17.783Z,76.57
2022-09-12T10:19:17.783Z,77.08
2022-09-12T10:20:21.497Z,77.17
2022-09-12T10:21:18.708Z,77.34
2022-09-12T10:22:17.811Z,77.14
2022-09-12T10:23:17.695Z,77.31
2022-09-12T10:24:17.703Z,76.50
2022-09-12T10:25:17.654Z,76.56
2022-09-12T10:26:17.633Z,76.36
2022-09-12T10:27:17.638Z,75.46
2022-09-12T10:28:17.642Z,76.32
2022-09-12T10:29:17.662Z,75.92
2022-09-12T10:30:17.595Z,76.32
2022-09-12T10:31:17.717Z,74.21
2022-09-12T10:32:17.600Z,74.11
2022-09-12T10:33:17.660Z,73.91
2022-09-12T10:34:17.573Z,73.68
2022-09-12T10:35:17.602Z,73.68
2022-09-12T10:36:17.541Z,74.72
2022-09-12T10:37:17.598Z,74.62
2022-09-12T10:38:17.524Z,74.92
2022-09-12T10:39:17.518Z,73.98
2022-09-12T10:40:17.569Z,72.57
2022-09-12T10:41:18.110Z,73.14
2022-09-12T10:42:21.553Z,72.24
2022-09-12T10:43:19.496Z,72.44
2022-09-12T10:44:17.503Z,72.74
2022-09-12T10:45:17.439Z,74.08
2022-09-12T10:46:17.521Z,74.78
2022-09-12T10:47:17.453Z,74.44
2022-09-12T10:48:17.477Z,72.80
2022-09-12T10:49:17.418Z,72.10
2022-09-12T10:50:22.644Z,72.17
2022-09-12T10:51:19.407Z,72.33
2022-09-12T10:52:17.446Z,71.33
2022-09-12T10:53:17.387Z,71.36
2022-09-12T10:54:17.416Z,69.12
2022-09-12T10:55:17.370Z,68.92
2022-09-12T10:56:17.361Z,68.12
2022-09-12T10:57:17.334Z,67.69
2022-09-12T10:58:17.325Z,67.66
2022-09-12T10:59:20.089Z,65.95
2022-09-12T11:00:18.367Z,66.46
2022-09-12T11:01:17.362Z,65.95
2022-09-12T11:02:17.359Z,66.02
2022-09-12T11:03:17.299Z,65.89
2022-09-12T11:04:17.284Z,64.69
2022-09-12T11:05:21.968Z,64.00
2022-09-12T11:06:19.267Z,62.39
2022-09-12T11:07:17.265Z,62.49
2022-09-12T11:08:17.279Z,62.70
2022-09-12T11:09:17.303Z,64.22
2022-09-12T11:10:17.247Z,64.52
2022-09-12T11:11:17.199Z,63.48
2022-09-12T11:12:17.171Z,63.95
2022-09-12T11:13:17.185Z,62.72
2022-09-12T11:14:17.194Z,62.49
2022-09-12T11:15:17.917Z,62.39
2022-09-12T11:16:17.268Z,62.37
2022-09-12T11:17:17.166Z,62.16
2022-09-12T11:18:17.166Z,61.46
2022-09-12T11:19:18.088Z,61.36
2022-09-12T11:20:17.145Z,59.64
2022-09-12T11:21:17.082Z,59.04
2022-09-12T11:22:17.082Z,60.93
2022-09-12T11:23:17.085Z,60.31
2022-09-12T11:24:17.085Z,61.41
2022-09-12T11:25:17.024Z,61.00
2022-09-12T11:26:17.058Z,60.78
2022-09-12T11:27:17.086Z,59.81
2022-09-12T11:28:17.090Z,58.44
2022-09-12T11:29:17.033Z,60.77
2022-09-12T11:30:17.045Z,59.97
2022-09-12T11:31:17.120Z,61.40
2022-09-12T11:32:16.990Z,62.72
2022-09-12T11:33:17.027Z,62.52
2022-09-12T11:34:17.059Z,62.19
2022-09-12T11:35:17.786Z,61.40
2022-09-12T11:36:17.945Z,63.39
2022-09-12T11:37:18.147Z,61.63
2022-09-12T11:38:18.008Z,61.46
2022-09-12T11:39:16.951Z,61.07
2022-09-12T11:40:17.010Z,60.14
2022-09-12T11:41:16.940Z,61.24
2022-09-12T11:42:16.933Z,59.04
2022-09-12T11:43:16.890Z,61.04
2022-09-12T11:44:16.877Z,62.86
2022-09-12T11:45:16.875Z,62.63
2022-09-12T11:46:16.917Z,60.24
2022-09-12T11:47:16.855Z,61.36
2022-09-12T11:48:16.861Z,59.56
2022-09-12T11:49:16.846Z,59.56
2022-09-12T11:50:16.811Z,61.43
2022-09-12T11:51:16.789Z,59.53
2022-09-12T11:52:16.802Z,60.63
2022-09-12T11:53:16.973Z,61.46
2022-09-12T11:54:16.803Z,62.16
2022-09-12T11:55:16.839Z,62.37
2022-09-12T11:56:16.755Z,60.96
2022-09-12T11:57:16.768Z,61.54
2022-09-12T11:58:16.729Z,58.84
2022-09-12T11:59:16.734Z,59.04
2022-09-12T12:00:16.762Z,59.64
2022-09-12T12:01:16.729Z,60.61
2022-09-12T12:02:16.776Z,60.61
2022-09-12T12:03:16.746Z,58.78
2022-09-12T12:04:16.714Z,57.88
2022-09-12T12:05:16.732Z,58.75
2022-09-12T12:06:16.649Z,58.42
2022-09-12T12:07:16.693Z,58.48
2022-09-12T12:08:16.678Z,59.78
2022-09-12T12:09:16.656Z,58.98
2022-09-12T12:10:16.638Z,58.01
2022-09-12T12:11:16.626Z,59.01
2022-09-12T12:12:16.675Z,58.91
2022-09-12T12:13:16.605Z,59.41
2022-09-12T12:14:16.599Z,59.78
2022-09-12T12:15:16.606Z,59.05
2022-09-12T12:16:16.657Z,57.95
2022-09-12T12:17:16.559Z,58.38
2022-09-12T12:18:16.535Z,58.85
2022-09-12T12:19:16.574Z,58.92
2022-09-12T12:20:16.550Z,58.53
2022-09-12T12:21:16.511Z,56.83
2022-09-12T12:22:16.546Z,56.10
2022-09-12T12:23:16.494Z,56.51
2022-09-12T12:24:16.490Z,56.10
2022-09-12T12:25:21.325Z,56.70
2022-09-12T12:26:18.484Z,55.71
2022-09-12T12:27:16.494Z,56.63
2022-09-12T12:28:16.481Z,57.73
2022-09-12T12:29:16.500Z,58.45
2022-09-12T12:30:16.505Z,59.15
2022-09-12T12:31:16.472Z,59.65
2022-09-12T12:32:16.424Z,59.25
2022-09-12T12:33:16.414Z,58.42
2022-09-12T12:34:16.770Z,58.72
2022-09-12T12:35:16.426Z,57.33
2022-09-12T12:36:16.363Z,58.23
2022-09-12T12:37:16.355Z,56.83
2022-09-12T12:38:16.331Z,56.96
2022-09-12T12:39:16.348Z,58.15
2022-09-12T12:40:16.426Z,56.79
2022-09-12T12:41:16.327Z,57.28
2022-09-12T12:42:19.154Z,55.88
2022-09-12T12:43:17.331Z,57.91
2022-09-12T12:44:16.298Z,56.91
2022-09-12T12:45:16.280Z,56.88
2022-09-12T12:46:16.314Z,55.49
2022-09-12T12:47:16.261Z,55.88
2022-09-12T12:48:16.237Z,56.76
2022-09-12T12:49:16.443Z,56.21
2022-09-12T12:50:16.247Z,55.80
2022-09-12T12:51:16.248Z,54.98
2022-09-12T12:52:16.227Z,55.88
2022-09-12T12:53:17.124Z,54.96
2022-09-12T12:54:16.279Z,54.33
2022-09-12T12:55:16.202Z,53.91
2022-09-12T12:56:16.171Z,52.42
2022-09-12T12:57:16.153Z,51.52
2022-09-12T12:58:16.161Z,52.72
2022-09-12T12:59:16.165Z,50.82
2022-09-12T13:00:16.138Z,52.44
2022-09-12T13:01:16.169Z,52.27
2022-09-12T13:02:16.148Z,53.46
2022-09-12T13:03:16.078Z,51.95
2022-09-12T13:04:16.122Z,52.79
2022-09-12T13:05:16.117Z,53.84
2022-09-12T13:06:16.124Z,54.64
2022-09-12T13:07:16.055Z,55.41
2022-09-12T13:08:16.147Z,55.28
2022-09-12T13:09:16.092Z,51.47
2022-09-12T13:10:16.074Z,51.67
2022-09-12T13:11:16.031Z,50.18
2022-09-12T13:12:16.022Z,50.38
2022-09-12T13:13:16.051Z,51.75
2022-09-12T13:14:16.011Z,52.81
2022-09-12T13:15:16.119Z,50.95
2022-09-12T13:16:16.061Z,51.82
2022-09-12T13:17:16.029Z,51.50
2022-09-12T13:18:16.013Z,52.29
2022-09-12T13:19:18.343Z,51.67
2022-09-12T13:20:27.970Z,51.07
2022-09-12T13:21:17.983Z,50.65
2022-09-12T13:22:15.935Z,48.57
2022-09-12T13:23:15.949Z,49.16
2022-09-12T13:24:16.005Z,49.04
2022-09-12T13:25:15.910Z,48.84
2022-09-12T13:26:15.871Z,48.02
2022-09-12T13:27:16.006Z,47.13
2022-09-12T13:28:15.873Z,48.72
2022-09-12T13:29:15.902Z,47.41
2022-09-12T13:30:15.873Z,47.71
2022-09-12T13:31:16.801Z,48.40
2022-09-12T13:32:15.861Z,48.60
2022-09-12T13:33:15.796Z,48.13
2022-09-12T13:34:15.792Z,48.96
2022-09-12T13:35:15.788Z,50.18
2022-09-12T13:36:15.809Z,48.96
2022-09-12T13:37:15.779Z,50.35
2022-09-12T13:38:15.806Z,50.33
2022-09-12T13:39:15.789Z,49.14
2022-09-12T13:40:15.767Z,49.81
2022-09-12T13:41:15.755Z,48.62
2022-09-12T13:42:15.732Z,46.53
2022-09-12T13:43:15.704Z,46.86
2022-09-12T13:44:15.745Z,47.03
2022-09-12T13:45:15.755Z,46.44
2022-09-12T13:46:15.756Z,45.64
2022-09-12T13:47:15.659Z,46.30
2022-09-12T13:48:15.674Z,45.75
2022-09-12T13:49:15.744Z,45.23
2022-09-12T13:50:16.169Z,43.80
2022-09-12T13:51:15.626Z,43.24
2022-09-12T13:52:15.663Z,42.90
2022-09-12T13:53:15.681Z,40.07
2022-09-12T13:54:15.678Z,39.04
2022-09-12T13:55:15.655Z,38.81
2022-09-12T13:56:15.567Z,39.28
2022-09-12T13:57:15.583Z,38.76
2022-09-12T13:58:15.629Z,38.05
2022-09-12T13:59:15.615Z,37.76
2022-09-12T14:00:15.581Z,38.28
2022-09-12T14:01:15.581Z,38.04
2022-09-12T14:02:15.571Z,39.86
2022-09-12T14:03:15.520Z,39.87
2022-09-12T14:04:15.519Z,40.82
2022-09-12T14:05:15.513Z,42.70
2022-09-12T14:06:15.545Z,43.02
2022-09-12T14:07:15.507Z,42.54
2022-09-12T14:08:15.478Z,42.66
2022-09-12T14:09:15.517Z,43.20
2022-09-12T14:10:15.530Z,43.70
2022-09-12T14:11:15.416Z,44.33
2022-09-12T14:12:15.428Z,44.85
2022-09-12T14:13:15.457Z,46.64
2022-09-12T14:14:15.467Z,47.87
2022-09-12T14:15:15.444Z,47.72
2022-09-12T14:16:15.415Z,48.74
2022-09-12T14:17:16.299Z,47.96
2022-09-12T14:18:16.388Z,48.36
2022-09-12T14:19:15.408Z,48.31
2022-09-12T14:20:15.350Z,49.53
2022-09-12T14:21:15.367Z,51.52
2022-09-12T14:22:15.293Z,52.12
2022-09-12T14:23:15.339Z,51.00
2022-09-12T14:24:15.479Z,50.10
2022-09-12T14:25:15.360Z,50.08
2022-09-12T14:26:15.305Z,48.68
2022-09-12T14:27:15.310Z,48.28
2022-09-12T14:28:15.325Z,48.80
2022-09-12T14:29:15.315Z,49.60
2022-09-12T14:30:15.227Z,49.70
2022-09-12T14:31:15.329Z,49.90
2022-09-12T14:32:15.260Z,51.00
2022-09-12T14:33:15.212Z,51.10
2022-09-12T14:34:15.242Z,49.98
2022-09-12T14:35:15.215Z,50.87
2022-09-12T14:36:15.198Z,50.57
2022-09-12T14:37:15.211Z,50.78
2022-09-12T14:38:15.154Z,49.18
2022-09-12T14:39:15.186Z,48.66
2022-09-12T14:40:15.207Z,49.08
2022-09-12T14:41:15.187Z,49.70
2022-09-12T14:42:15.145Z,50.80
2022-09-12T14:43:15.164Z,51.20
2022-09-12T14:44:15.146Z,51.00
2022-09-12T14:45:15.107Z,51.12
2022-09-12T14:46:15.163Z,50.45
2022-09-12T14:47:15.084Z,52.22
2022-09-12T14:48:15.723Z,50.52
2022-09-12T14:49:15.137Z,50.82
2022-09-12T14:50:15.047Z,49.03
2022-09-12T14:51:15.055Z,50.70
2022-09-12T14:52:15.027Z,48.63
2022-09-12T14:53:15.040Z,49.63
2022-09-12T14:54:15.074Z,51.59
2022-09-12T14:55:15.101Z,51.50
2022-09-12T14:56:15.020Z,50.00
2022-09-12T14:57:15.030Z,50.08
2022-09-12T14:58:14.954Z,50.08
2022-09-12T14:59:14.994Z,50.27
2022-09-12T15:00:14.973Z,48.98
2022-09-12T15:01:15.032Z,48.98
2022-09-12T15:02:15.068Z,49.90
2022-09-12T15:03:14.943Z,49.70
2022-09-12T15:04:14.955Z,50.00
2022-09-12T15:05:14.968Z,49.90
2022-09-12T15:06:15.621Z,50.73
2022-09-12T15:07:15.664Z,49.40
2022-09-12T15:08:14.887Z,48.21
2022-09-12T15:09:14.911Z,47.96
2022-09-12T15:10:14.872Z,46.92
2022-09-12T15:11:14.906Z,47.20
2022-09-12T15:12:14.837Z,47.97
2022-09-12T15:13:14.816Z,46.66
2022-09-12T15:14:14.864Z,45.82
2022-09-12T15:15:14.885Z,43.99
2022-09-12T15:16:14.898Z,43.38
2022-09-12T15:17:14.817Z,42.96
2022-09-12T15:18:14.813Z,43.87
2022-09-12T15:19:14.777Z,42.82
2022-09-12T15:20:14.833Z,41.79
2022-09-12T15:21:14.901Z,40.88
2022-09-12T15:22:14.739Z,40.07
2022-09-12T15:23:14.808Z,40.07
2022-09-12T15:24:14.730Z,39.12
2022-09-12T15:25:14.750Z,40.33
2022-09-12T15:26:14.788Z,40.05
2022-09-12T15:27:14.703Z,40.84
2022-09-12T15:28:14.743Z,41.52
2022-09-12T15:29:14.676Z,39.81
2022-09-12T15:30:14.663Z,39.20
2022-09-12T15:31:14.722Z,39.58
2022-09-12T15:32:14.670Z,39.76
2022-09-12T15:33:14.722Z,39.28
2022-09-12T15:34:14.667Z,39.79
2022-09-12T15:35:14.615Z,39.62
2022-09-12T15:36:14.642Z,39.85
2022-09-12T15:37:14.611Z,40.66